Time;durP1;ratioP1;P1;durP2;ratioP2;P2;SDS_P1;SDS_P2;PMS_P1;PMS_P2;Temp;Humidity;BMP_temperature;BMP_pressure;BME280_temperature;BME280_humidity;BME280_pressure;Samples;Min_cycle;Max_cycle;Signal;HPM_P1;HPM_P2
2021/12/05 00:22:13;;;;;;;;;;;;;;;3.88;62.42;98877.94;4418244;32;32864;-88
2021/12/05 00:24:44;;;;;;;;;;;;;;;3.53;62.98;98880.72;4428711;32;33401;-88
2021/12/05 00:27:18;;;;;;;;;;;;;;;3.66;62.80;98881.22;4403871;32;33316;-86
2021/12/05 00:30:06;;;;;;;;;;;;;;;3.59;63.13;98871.84;4401949;32;31593;-86
2021/12/05 00:49:17;;;;;;;;;;;;;;;3.79;62.98;98877.31;4417775;32;33956;-90
2021/12/05 01:02:44;;;;;;;;;;;;;;;3.34;64.97;98877.81;4415869;32;32092;-89
2021/12/05 01:15:50;;;;;;;;;;;;;;;3.63;64.08;98875.22;4429964;32;33266;-89
2021/12/05 01:18:19;;;;;;;;;;;;;;;3.32;65.31;98877.00;4402966;32;33562;-89
2021/12/05 01:20:51;;;;;;;;;;;;;;;3.40;65.35;98871.53;4415057;32;33928;-89
2021/12/05 01:26:12;;;;;;;;;;;;;;;3.79;64.38;98858.19;4416180;32;33523;-88
2021/12/05 01:34:09;;;;;;;;;;;;;;;3.60;65.03;98852.66;4401410;32;32598;-90
2021/12/05 01:39:40;;;;;;;;;;;;;;;3.24;66.25;98860.72;4425878;32;33818;-87
2021/12/05 01:50:18;;;;;;;;;;;;;;;3.46;66.77;98860.06;4426164;32;33563;-85
2021/12/05 02:36:33;;;;;;;;;;;;;;;2.56;71.51;98821.75;4414913;32;33218;-88
2021/12/05 02:39:22;;;;;;;;;;;;;;;2.65;71.21;98815.44;4415534;32;32364;-87
2021/12/05 02:41:52;;;;;;;;;;;;;;;3.02;69.70;98807.44;4402707;32;34179;-86
2021/12/05 02:44:24;;;;;;;;;;;;;;;2.92;69.81;98813.81;4413709;32;34048;-87
2021/12/05 02:47:04;;;;;;;;;;;;;;;3.04;69.78;98809.12;4400787;32;34189;-86
2021/12/05 02:49:33;;;;;;;;;;;;;;;2.98;70.18;98804.06;4412986;32;32809;-87
2021/12/05 02:52:04;;;;;;;;;;;;;;;3.31;68.72;98796.16;4425761;32;34066;-87
2021/12/05 02:54:36;;;;;;;;;;;;;;;3.20;69.20;98804.31;4413326;32;33222;-87
2021/12/05 02:57:06;;;;;;;;;;;;;;;3.26;68.93;98804.09;4413022;32;32774;-87
2021/12/05 03:02:08;;;;;;;;;;;;;;;3.02;70.28;98807.44;4425241;32;33277;-87
2021/12/05 03:04:40;;;;;;;;;;;;;;;3.05;70.17;98812.59;4400606;32;33127;-87
2021/12/05 03:07:09;;;;;;;;;;;;;;;3.39;69.19;98814.19;4400247;32;33092;-87
2021/12/05 03:09:39;;;;;;;;;;;;;;;3.49;68.66;98807.78;4400222;32;32250;-87
2021/12/05 03:12:09;;;;;;;;;;;;;;;3.52;68.11;98805.94;4400064;32;33359;-87
2021/12/05 03:14:38;;;;;;;;;;;;;;;3.46;68.55;98807.88;4400220;32;34116;-88
2021/12/05 03:17:05;;;;;;;;;;;;;;;3.19;69.83;98815.62;4399815;32;34430;-88
2021/12/05 03:19:32;;;;;;;;;;;;;;;2.98;70.42;98816.25;4399574;32;33562;-87
2021/12/05 03:22:00;;;;;;;;;;;;;;;3.53;68.49;98805.03;4399880;32;32609;-87
2021/12/05 03:24:30;;;;;;;;;;;;;;;3.40;68.96;98802.84;4412308;32;34146;-88
2021/12/05 03:26:58;;;;;;;;;;;;;;;3.74;67.72;98800.88;4412106;32;34185;-87
2021/12/05 03:33:27;;;;;;;;;;;;;;;3.45;68.91;98814.00;4438775;32;34835;-85
2021/12/05 03:35:55;;;;;;;;;;;;;;;3.47;68.94;98831.31;4424933;32;34201;-89
2021/12/05 03:38:23;;;;;;;;;;;;;;;3.45;68.88;98817.44;4412257;32;33919;-89
2021/12/05 03:40:52;;;;;;;;;;;;;;;3.86;67.34;98817.91;4399973;32;32004;-89
2021/12/05 03:43:19;;;;;;;;;;;;;;;3.91;66.96;98816.00;4400791;32;33658;-89
2021/12/05 03:45:51;;;;;;;;;;;;;;;3.38;68.86;98823.78;4414232;32;34001;-89
2021/12/05 03:48:20;;;;;;;;;;;;;;;3.33;69.60;98812.63;4426729;32;34215;-88
2021/12/05 03:50:48;;;;;;;;;;;;;;;3.36;69.32;98812.50;4413852;32;34058;-88
2021/12/05 03:53:17;;;;;;;;;;;;;;;3.18;69.80;98821.75;4427136;32;34169;-87
2021/12/05 03:55:47;;;;;;;;;;;;;;;3.82;68.03;98811.09;4413889;32;34027;-86
2021/12/05 03:58:14;;;;;;;;;;;;;;;3.91;67.53;98813.41;4413949;32;33220;-86
2021/12/05 04:00:45;;;;;;;;;;;;;;;3.66;68.42;98815.94;4426684;32;33021;-86
2021/12/05 04:03:14;;;;;;;;;;;;;;;3.85;67.89;98811.00;4426918;32;35551;-86
2021/12/05 04:05:43;;;;;;;;;;;;;;;3.54;68.54;98809.34;4401585;32;32707;-86
2021/12/05 04:08:12;;;;;;;;;;;;;;;3.60;68.23;98816.97;4401164;32;32829;-87
2021/12/05 04:10:43;;;;;;;;;;;;;;;3.76;67.84;98816.50;4414390;32;31954;-87
2021/12/05 04:13:11;;;;;;;;;;;;;;;3.72;67.73;98813.13;4401450;32;32587;-87
2021/12/05 04:15:38;;;;;;;;;;;;;;;3.46;68.64;98808.72;4413933;32;33676;-87
2021/12/05 04:26:13;;;;;;;;;;;;;;;3.56;68.77;98804.06;4440733;32;34915;-87
2021/12/05 04:28:42;;;;;;;;;;;;;;;3.58;68.52;98812.72;4401304;32;34523;-87
2021/12/05 04:31:10;;;;;;;;;;;;;;;3.56;68.75;98814.50;4401004;32;33455;-88
2021/12/05 04:33:38;;;;;;;;;;;;;;;3.97;67.28;98804.50;4401256;32;31463;-88
2021/12/05 04:36:06;;;;;;;;;;;;;;;3.51;68.43;98811.19;4401439;32;33678;-88
2021/12/05 04:38:33;;;;;;;;;;;;;;;3.37;69.40;98813.38;4401330;32;33007;-88
2021/12/05 04:41:01;;;;;;;;;;;;;;;3.69;68.26;98820.19;4401148;32;33173;-89
2021/12/05 04:43:36;;;;;;;;;;;;;;;3.68;68.31;98819.34;4413774;32;32239;-88
2021/12/05 04:46:17;;;;;;;;;;;;;;;4.06;66.74;98809.44;4403097;32;33183;-89
2021/12/05 04:52:48;;;;;;;;;;;;;;;3.64;68.38;98807.28;4444600;32;35189;-90
2021/12/05 04:55:17;;;;;;;;;;;;;;;3.69;68.33;98804.53;4394423;32;32488;-90
2021/12/05 04:57:48;;;;;;;;;;;;;;;3.71;68.13;98811.44;4408836;32;33046;-89
2021/12/05 05:00:19;;;;;;;;;;;;;;;3.81;68.04;98810.25;4421386;32;32782;-90
2021/12/05 05:03:11;;;;;;;;;;;;;;;3.52;68.86;98808.56;4387419;32;32920;-88
2021/12/05 05:05:44;;;;;;;;;;;;;;;3.31;69.78;98807.44;4372503;32;33876;-89
2021/12/05 05:08:12;;;;;;;;;;;;;;;3.74;68.48;98800.03;4388534;32;33123;-89
2021/12/05 05:10:39;;;;;;;;;;;;;;;3.94;67.58;98794.16;4368339;32;33233;-89
2021/12/05 05:13:07;;;;;;;;;;;;;;;3.44;69.28;98800.09;4376038;32;34328;-90
2021/12/05 05:15:36;;;;;;;;;;;;;;;3.56;69.07;98814.50;4366191;32;33426;-88
2021/12/05 05:18:04;;;;;;;;;;;;;;;3.69;68.89;98814.97;4357207;32;33116;-88
2021/12/05 05:20:40;;;;;;;;;;;;;;;3.64;69.13;98812.50;4380923;32;34623;-88
2021/12/05 05:45:24;;;;;;;;;;;;;;;4.31;66.70;98823.38;4312729;33;31398;-89
2021/12/05 05:48:26;;;;;;;;;;;;;;;4.33;66.86;98824.19;4370911;32;31833;-89
2021/12/05 05:50:52;;;;;;;;;;;;;;;4.28;67.11;98823.50;4379101;32;32653;-89
2021/12/05 05:53:19;;;;;;;;;;;;;;;4.32;66.77;98814.66;4352523;32;32886;-90
2021/12/05 05:55:48;;;;;;;;;;;;;;;4.13;67.27;98808.34;4387525;32;32688;-90
2021/12/05 05:58:25;;;;;;;;;;;;;;;4.29;67.14;98806.06;4376519;32;33714;-90
2021/12/05 06:01:01;;;;;;;;;;;;;;;3.59;69.53;98817.88;4352724;32;32959;-90
2021/12/05 06:03:33;;;;;;;;;;;;;;;3.99;68.43;98818.38;4377528;32;33196;-91
2021/12/05 06:06:02;;;;;;;;;;;;;;;4.12;67.89;98830.13;4375498;32;34307;-90
2021/12/05 06:08:35;;;;;;;;;;;;;;;4.06;67.91;98830.31;4376428;32;32210;-90
2021/12/05 06:11:06;;;;;;;;;;;;;;;4.09;67.93;98835.47;4395592;32;32982;-90
2021/12/05 06:13:35;;;;;;;;;;;;;;;4.16;68.12;98834.34;4380265;32;33828;-88
2021/12/05 06:16:05;;;;;;;;;;;;;;;4.42;67.10;98830.88;4379813;32;34615;-88
2021/12/05 06:18:32;;;;;;;;;;;;;;;4.43;66.88;98835.19;4385294;32;33423;-88
2021/12/05 06:21:01;;;;;;;;;;;;;;;4.44;66.61;98836.03;4367067;32;33035;-88
2021/12/05 06:23:28;;;;;;;;;;;;;;;4.14;67.77;98838.78;4391285;32;33747;-88
2021/12/05 06:25:56;;;;;;;;;;;;;;;4.12;68.06;98848.41;4382088;32;33241;-88
2021/12/05 06:28:30;;;;;;;;;;;;;;;4.16;68.25;98846.56;4374706;32;33456;-90
2021/12/05 06:31:10;;;;;;;;;;;;;;;4.09;68.18;98840.69;4384267;32;32592;-91
2021/12/05 06:47:38;;;;;;;;;;;;;;;4.40;67.45;98829.19;4362679;32;34074;-92
2021/12/05 06:50:33;;;;;;;;;;;;;;;4.57;66.70;98839.94;4365233;32;34909;-91
2021/12/05 06:53:06;;;;;;;;;;;;;;;4.26;68.10;98848.81;4391897;32;32962;-89
2021/12/05 06:55:46;;;;;;;;;;;;;;;4.43;67.68;98856.09;4349480;32;33044;-91
2021/12/05 06:58:27;;;;;;;;;;;;;;;4.16;68.54;98859.63;4379817;32;33235;-92
2021/12/05 07:01:21;;;;;;;;;;;;;;;3.94;69.45;98864.66;4381800;32;34680;-89
2021/12/05 07:03:50;;;;;;;;;;;;;;;4.32;68.17;98869.53;4351310;32;32918;-91
2021/12/05 07:06:31;;;;;;;;;;;;;;;4.40;67.90;98863.19;4403624;32;33147;-89
2021/12/05 07:09:07;;;;;;;;;;;;;;;4.23;68.69;98877.66;4401790;32;33163;-88
2021/12/05 07:11:50;;;;;;;;;;;;;;;4.00;69.51;98867.97;4371740;32;33724;-88
2021/12/05 07:17:01;;;;;;;;;;;;;;;3.89;70.34;98869.19;4400217;32;34349;-89
2021/12/05 07:19:54;;;;;;;;;;;;;;;3.81;70.41;98874.66;4371197;32;33070;-88
2021/12/05 07:22:23;;;;;;;;;;;;;;;4.00;69.68;98867.09;4388295;32;31914;-89
2021/12/05 07:25:00;;;;;;;;;;;;;;;4.10;69.64;98874.59;4379060;32;32960;-92
2021/12/05 07:41:54;;;;;;;;;;;;;;;4.42;68.24;98869.22;4384972;32;32936;-90
2021/12/05 07:44:33;;;;;;;;;;;;;;;4.30;68.69;98892.22;4385187;32;33985;-90
2021/12/05 07:47:34;;;;;;;;;;;;;;;4.48;68.33;98892.53;4400605;32;33181;-90
2021/12/05 07:50:12;;;;;;;;;;;;;;;4.65;67.53;98892.78;4400674;32;32873;-91
2021/12/05 07:53:17;;;;;;;;;;;;;;;4.49;68.15;98882.00;4427451;32;33781;-91
2021/12/05 07:56:12;;;;;;;;;;;;;;;4.85;67.20;98885.12;4407116;32;33047;-90
2021/12/05 08:00:03;;;;;;;;;;;;;;;5.09;65.24;98893.03;4391107;32;32155;-91
2021/12/05 08:18:13;;;;;;;;;;;;;;;4.80;66.58;98900.16;4374202;32;33673;-90
2021/12/05 08:21:07;;;;;;;;;;;;;;;5.04;65.99;98895.81;4382126;32;33264;-93
2021/12/05 08:23:48;;;;;;;;;;;;;;;5.12;65.51;98896.37;4412724;32;31997;-92
2021/12/05 08:26:41;;;;;;;;;;;;;;;4.85;66.55;98894.75;4395058;32;33648;-92
2021/12/05 08:29:30;;;;;;;;;;;;;;;5.02;66.14;98891.53;4357194;32;33206;-93
2021/12/05 08:32:35;;;;;;;;;;;;;;;5.09;65.93;98908.72;4401430;32;33893;-91
2021/12/05 08:35:44;;;;;;;;;;;;;;;5.11;65.83;98901.66;4427969;32;32344;-91
2021/12/05 09:24:20;;;;;;;;;;;;;;;4.95;66.72;98892.66;4373384;32;32282;-93
2021/12/05 09:51:41;;;;;;;;;;;;;;;5.55;65.50;98870.38;4395053;32;34632;-91
2021/12/05 10:08:11;;;;;;;;;;;;;;;5.63;65.06;98852.59;4420375;32;35682;-90
2021/12/05 10:13:16;;;;;;;;;;;;;;;5.33;65.99;98841.53;4391519;32;33587;-91
2021/12/05 10:16:21;;;;;;;;;;;;;;;4.87;67.96;98851.91;4397983;32;32745;-92
2021/12/05 10:38:06;;;;;;;;;;;;;;;5.57;65.50;98831.91;4431176;32;34050;-93
2021/12/05 10:41:02;;;;;;;;;;;;;;;5.29;66.05;98840.78;4414367;32;34966;-91
2021/12/05 10:43:46;;;;;;;;;;;;;;;4.94;67.42;98836.00;4422228;32;34126;-91
2021/12/05 10:46:35;;;;;;;;;;;;;;;5.21;66.25;98832.38;4372345;32;33199;-93
2021/12/05 10:49:25;;;;;;;;;;;;;;;4.82;67.97;98832.94;4418272;32;31962;-89
2021/12/05 10:52:05;;;;;;;;;;;;;;;5.20;66.68;98832.44;4382738;32;32850;-90
2021/12/05 10:54:33;;;;;;;;;;;;;;;5.16;66.71;98830.84;4370826;32;34214;-91
2021/12/05 10:57:02;;;;;;;;;;;;;;;5.27;66.45;98823.44;4368549;32;32854;-86
2021/12/05 10:59:38;;;;;;;;;;;;;;;4.85;67.75;98824.97;4365920;32;32405;-90
2021/12/05 11:02:24;;;;;;;;;;;;;;;5.28;66.53;98823.41;4393062;32;32748;-92
2021/12/05 11:05:34;;;;;;;;;;;;;;;4.85;67.58;98821.50;4413780;32;34762;-92
2021/12/05 11:08:36;;;;;;;;;;;;;;;4.90;67.82;98814.34;4397833;32;33227;-92
2021/12/05 11:11:18;;;;;;;;;;;;;;;4.73;68.58;98817.56;4408829;32;32012;-92
2021/12/05 11:14:10;;;;;;;;;;;;;;;4.95;67.94;98814.19;4382301;32;33599;-92
2021/12/05 11:16:51;;;;;;;;;;;;;;;5.08;67.33;98815.41;4407037;32;34191;-89
2021/12/05 11:19:47;;;;;;;;;;;;;;;4.86;68.25;98813.59;4408141;32;32603;-90
2021/12/05 11:22:38;;;;;;;;;;;;;;;4.95;67.65;98817.66;4381823;32;32186;-92
2021/12/05 11:25:24;;;;;;;;;;;;;;;4.80;68.11;98832.12;4363787;32;32949;-92
2021/12/05 11:28:08;;;;;;;;;;;;;;;5.13;67.22;98824.81;4384987;32;34208;-93
2021/12/05 11:31:03;;;;;;;;;;;;;;;4.67;68.45;98825.63;4412873;32;35417;-92
2021/12/05 11:33:47;;;;;;;;;;;;;;;4.62;68.72;98824.94;4383591;32;32591;-92
2021/12/05 11:36:30;;;;;;;;;;;;;;;4.98;67.45;98814.06;4399755;32;32528;-92
2021/12/05 11:39:19;;;;;;;;;;;;;;;4.53;68.87;98818.28;4368263;32;32968;-91
2021/12/05 11:42:17;;;;;;;;;;;;;;;4.49;69.29;98821.91;4406827;32;35809;-92
2021/12/05 11:45:03;;;;;;;;;;;;;;;4.59;68.57;98817.19;4393433;32;32315;-92
2021/12/05 11:47:45;;;;;;;;;;;;;;;4.69;68.30;98822.94;4361730;32;33111;-94
2021/12/05 11:50:34;;;;;;;;;;;;;;;4.81;67.83;98828.59;4384853;32;32788;-93
2021/12/05 11:53:17;;;;;;;;;;;;;;;4.76;67.55;98829.69;4428917;32;33653;-93
2021/12/05 11:56:00;;;;;;;;;;;;;;;4.63;68.29;98822.25;4395067;32;32340;-94
2021/12/05 11:59:20;;;;;;;;;;;;;;;4.57;68.27;98816.41;4382252;32;35443;-93
2021/12/05 12:02:20;;;;;;;;;;;;;;;4.91;67.17;98820.44;4379321;32;32809;-93
2021/12/05 12:05:13;;;;;;;;;;;;;;;4.68;68.02;98816.88;4381862;32;32471;-93
2021/12/05 12:08:07;;;;;;;;;;;;;;;4.37;69.47;98815.34;4405621;32;31922;-92
2021/12/05 12:10:50;;;;;;;;;;;;;;;4.50;68.98;98812.28;4361569;32;33006;-94
2021/12/05 12:13:46;;;;;;;;;;;;;;;4.45;69.38;98827.28;4383917;32;34792;-92
2021/12/05 12:16:33;;;;;;;;;;;;;;;4.07;70.58;98838.09;4352477;32;32600;-92
2021/12/05 12:19:20;;;;;;;;;;;;;;;4.45;69.15;98837.72;4413432;32;32429;-93
2021/12/05 12:22:05;;;;;;;;;;;;;;;4.25;69.65;98830.56;4411421;32;32704;-93
2021/12/05 12:24:50;;;;;;;;;;;;;;;4.50;68.72;98826.22;4417149;32;32870;-94
2021/12/05 12:27:34;;;;;;;;;;;;;;;3.97;70.57;98830.62;4377235;32;34965;-94
2021/12/05 12:30:24;;;;;;;;;;;;;;;3.92;70.86;98837.75;4389546;32;32456;-93
2021/12/05 12:33:11;;;;;;;;;;;;;;;4.18;70.27;98829.94;4408172;32;32727;-87
2021/12/05 12:35:39;;;;;;;;;;;;;;;4.52;69.16;98818.34;4385190;32;33576;-96
2021/12/05 12:38:14;;;;;;;;;;;;;;;4.11;70.67;98805.75;4375902;32;33220;-93
2021/12/05 12:40:42;;;;;;;;;;;;;;;3.90;71.45;98805.63;4385472;32;33599;-88
2021/12/05 12:43:28;;;;;;;;;;;;;;;4.25;70.66;98809.66;4387113;32;32820;-90
2021/12/05 12:46:14;;;;;;;;;;;;;;;4.56;69.42;98802.50;4399433;32;34587;-89
2021/12/05 12:48:42;;;;;;;;;;;;;;;4.33;70.36;98808.50;4372207;32;32730;-90
2021/12/05 12:51:29;;;;;;;;;;;;;;;4.46;69.89;98814.16;4383786;32;33678;-89
2021/12/05 12:53:57;;;;;;;;;;;;;;;4.35;70.14;98819.75;4411255;32;33677;-90
2021/12/05 12:57:04;;;;;;;;;;;;;;;4.36;70.42;98818.00;4386790;32;33751;-93
2021/12/05 12:59:56;;;;;;;;;;;;;;;4.39;69.89;98812.66;4388248;32;34494;-92
2021/12/05 13:11:35;;;;;;;;;;;;;;;4.91;67.87;98782.03;4358965;32;33703;-89
2021/12/05 13:14:04;;;;;;;;;;;;;;;3.90;71.08;98787.34;4389717;32;33118;-92
2021/12/05 13:16:47;;;;;;;;;;;;;;;3.81;71.74;98791.09;4383117;32;33890;-91
2021/12/05 13:19:57;;;;;;;;;;;;;;;3.92;71.84;98777.69;4401850;32;32160;-94
2021/12/05 13:23:01;;;;;;;;;;;;;;;4.56;69.11;98778.09;4511414;27;20006;-92
2021/12/05 13:25:59;;;;;;;;;;;;;;;4.31;70.17;98773.72;4391282;32;32957;-92
2021/12/05 13:28:57;;;;;;;;;;;;;;;4.15;70.76;98769.94;4398481;32;19993;-89
2021/12/05 13:31:27;;;;;;;;;;;;;;;4.03;71.36;98762.50;4395320;32;32998;-89
2021/12/05 13:34:14;;;;;;;;;;;;;;;3.72;72.29;98753.09;4387412;32;33151;-88
2021/12/05 13:36:52;;;;;;;;;;;;;;;4.12;71.00;98742.16;4412894;32;32334;-89
2021/12/05 13:39:39;;;;;;;;;;;;;;;4.01;71.54;98738.22;4403482;32;32729;-90
2021/12/05 13:42:16;;;;;;;;;;;;;;;3.83;73.02;98730.06;4401596;32;32905;-90
2021/12/05 13:44:59;;;;;;;;;;;;;;;4.00;72.14;98745.19;4417296;32;32794;-89
2021/12/05 13:47:54;;;;;;;;;;;;;;;3.84;73.05;98726.56;4416935;32;32693;-90
2021/12/05 13:50:25;;;;;;;;;;;;;;;3.46;74.04;98735.66;4416642;32;32606;-90
2021/12/05 13:52:53;;;;;;;;;;;;;;;3.75;74.00;98746.91;4404520;32;33493;-90
2021/12/05 13:55:42;;;;;;;;;;;;;;;3.92;72.99;98760.25;4391916;32;32540;-90
2021/12/05 13:58:13;;;;;;;;;;;;;;;4.41;71.16;98760.34;4403205;32;32533;-90
2021/12/05 14:00:42;;;;;;;;;;;;;;;3.87;72.83;98766.53;4415633;32;33171;-90
2021/12/05 14:03:10;;;;;;;;;;;;;;;3.79;73.40;98772.00;4388621;32;32743;-89
2021/12/05 14:05:45;;;;;;;;;;;;;;;3.90;72.93;98767.31;4400842;32;33034;-89
2021/12/05 14:08:14;;;;;;;;;;;;;;;3.85;72.96;98769.22;4399980;32;32240;-89
2021/12/05 14:10:43;;;;;;;;;;;;;;;3.61;73.98;98781.31;4397405;32;33124;-89
2021/12/05 14:13:11;;;;;;;;;;;;;;;3.79;73.08;98775.47;4380057;32;34109;-89
2021/12/05 14:15:39;;;;;;;;;;;;;;;3.94;73.02;98775.88;4383225;32;33057;-89
2021/12/05 14:18:08;;;;;;;;;;;;;;;3.18;75.57;98782.63;4394682;32;32165;-88
2021/12/05 14:20:35;;;;;;;;;;;;;;;3.19;76.03;98779.13;4386224;32;33360;-90
2021/12/05 14:23:06;;;;;;;;;;;;;;;3.45;75.25;98777.47;4384485;32;32634;-89
2021/12/05 14:25:36;;;;;;;;;;;;;;;3.64;74.53;98770.75;4387395;32;34018;-89
2021/12/05 14:28:04;;;;;;;;;;;;;;;3.54;74.83;98774.56;4395892;32;32763;-89
2021/12/05 14:30:34;;;;;;;;;;;;;;;4.07;73.21;98779.78;4384633;32;33140;-90
2021/12/05 14:33:02;;;;;;;;;;;;;;;3.85;73.87;98783.13;4384763;32;33808;-88
2021/12/05 14:35:32;;;;;;;;;;;;;;;3.79;74.11;98791.13;4398554;32;35048;-89
2021/12/05 14:38:01;;;;;;;;;;;;;;;4.22;72.29;98794.94;4398175;32;33459;-89
2021/12/05 14:40:32;;;;;;;;;;;;;;;4.19;71.96;98797.66;4386311;32;33868;-89
2021/12/05 14:43:08;;;;;;;;;;;;;;;3.94;72.93;98795.03;4385240;32;34001;-89
2021/12/05 14:45:38;;;;;;;;;;;;;;;4.10;72.62;98797.97;4383674;32;33032;-88
2021/12/05 14:48:06;;;;;;;;;;;;;;;4.16;72.76;98800.38;4386694;32;31920;-89
2021/12/05 14:50:47;;;;;;;;;;;;;;;4.07;72.90;98800.69;4393842;32;33514;-88
2021/12/05 14:53:18;;;;;;;;;;;;;;;4.47;71.34;98794.13;4392244;32;32963;-89
2021/12/05 14:55:46;;;;;;;;;;;;;;;4.51;71.07;98800.91;4376769;32;32752;-89
2021/12/05 14:58:15;;;;;;;;;;;;;;;4.26;71.67;98795.69;4385211;32;33067;-88
2021/12/05 15:00:50;;;;;;;;;;;;;;;4.16;72.37;98797.75;4394190;32;32928;-88
2021/12/05 15:03:19;;;;;;;;;;;;;;;4.45;71.44;98795.91;4392010;32;33445;-88
2021/12/05 15:05:48;;;;;;;;;;;;;;;4.57;70.93;98791.13;4379063;32;32721;-88
2021/12/05 15:08:17;;;;;;;;;;;;;;;3.81;73.73;98793.72;4379577;32;34307;-88
2021/12/05 15:10:46;;;;;;;;;;;;;;;3.68;74.17;98798.47;4381675;32;32893;-88
2021/12/05 15:13:16;;;;;;;;;;;;;;;3.76;73.99;98790.41;4379161;32;33185;-87
2021/12/05 15:15:43;;;;;;;;;;;;;;;3.71;74.02;98798.38;4376323;32;33602;-89
2021/12/05 15:18:19;;;;;;;;;;;;;;;3.58;74.57;98797.06;4378081;32;32271;-88
2021/12/05 15:20:46;;;;;;;;;;;;;;;3.34;75.85;98794.31;4391610;32;32500;-87
2021/12/05 15:23:14;;;;;;;;;;;;;;;3.13;77.06;98794.94;4374169;32;33457;-87
2021/12/05 15:25:42;;;;;;;;;;;;;;;3.58;75.52;98790.06;4406818;32;34243;-87
2021/12/05 15:28:10;;;;;;;;;;;;;;;3.72;74.55;98791.41;4381788;32;32174;-88
2021/12/05 15:30:39;;;;;;;;;;;;;;;3.48;75.30;98793.88;4406618;32;33734;-87
2021/12/05 15:33:08;;;;;;;;;;;;;;;3.29;76.33;98775.31;4394129;32;33703;-87
2021/12/05 15:35:36;;;;;;;;;;;;;;;3.28;76.61;98778.84;4378770;32;33287;-88
2021/12/05 15:38:05;;;;;;;;;;;;;;;3.47;76.15;98779.13;4367253;32;32189;-87
2021/12/05 15:40:34;;;;;;;;;;;;;;;3.51;75.75;98785.09;4381027;32;32534;-87
2021/12/05 15:43:04;;;;;;;;;;;;;;;3.55;75.40;98778.88;4368842;32;33110;-87
2021/12/05 15:45:32;;;;;;;;;;;;;;;3.40;75.85;98782.81;4393657;32;33418;-87
2021/12/05 15:47:59;;;;;;;;;;;;;;;3.62;75.11;98780.41;4393894;32;33343;-87
2021/12/05 15:50:27;;;;;;;;;;;;;;;3.31;76.32;98781.34;4380786;32;32558;-87
2021/12/05 15:52:56;;;;;;;;;;;;;;;3.36;76.50;98780.34;4380975;32;33519;-87
2021/12/05 15:55:30;;;;;;;;;;;;;;;3.58;75.31;98776.19;4368441;32;33339;-87
2021/12/05 15:58:01;;;;;;;;;;;;;;;3.54;75.78;98782.37;4381078;32;32968;-86
2021/12/05 16:00:31;;;;;;;;;;;;;;;3.28;76.49;98788.44;4380790;32;33917;-87
2021/12/05 16:03:03;;;;;;;;;;;;;;;3.61;75.61;98791.75;4381033;32;34510;-87
2021/12/05 16:05:32;;;;;;;;;;;;;;;3.57;75.37;98785.75;4380769;32;33037;-86
2021/12/05 16:08:11;;;;;;;;;;;;;;;4.04;74.34;98799.03;4368896;32;32383;-87
2021/12/05 16:14:43;;;;;;;;;;;;;;;4.41;72.48;98805.63;4394734;32;35072;-87
2021/12/05 16:17:18;;;;;;;;;;;;;;;4.01;73.76;98790.44;4393504;32;34240;-87
2021/12/05 16:20:03;;;;;;;;;;;;;;;4.13;73.79;98792.66;4386790;32;32317;-87
2021/12/05 16:22:31;;;;;;;;;;;;;;;4.23;73.54;98807.13;4396168;32;33969;-86
2021/12/05 16:25:14;;;;;;;;;;;;;;;4.32;72.24;98806.81;4396272;32;34088;-86
2021/12/05 16:27:49;;;;;;;;;;;;;;;4.62;71.83;98817.09;4396342;32;34249;-86
2021/12/05 16:30:20;;;;;;;;;;;;;;;4.53;71.91;98813.03;4383554;32;32919;-87
2021/12/05 16:32:48;;;;;;;;;;;;;;;4.57;71.72;98824.25;4408619;32;34015;-86
2021/12/05 16:38:47;;;;;;;;;;;;;;;5.14;69.82;98844.00;4408392;32;33227;-86
2021/12/05 16:41:19;;;;;;;;;;;;;;;5.23;69.09;98843.66;4380613;32;32556;-86
2021/12/05 16:43:58;;;;;;;;;;;;;;;5.26;68.67;98827.81;4368608;32;33372;-86
2021/12/05 16:46:27;;;;;;;;;;;;;;;4.79;70.64;98825.19;4397593;32;34458;-86
2021/12/05 16:48:57;;;;;;;;;;;;;;;4.70;71.03;98819.41;4392849;32;33348;-86
2021/12/05 16:51:24;;;;;;;;;;;;;;;4.99;69.97;98827.09;4402145;32;33390;-86
2021/12/05 16:53:58;;;;;;;;;;;;;;;4.85;70.16;98829.34;4398094;32;35090;-86
2021/12/05 16:56:33;;;;;;;;;;;;;;;4.56;71.70;98838.25;4390192;32;33801;-86
2021/12/05 16:59:13;;;;;;;;;;;;;;;4.53;71.77;98840.94;4383015;32;33605;-86
2021/12/05 17:01:44;;;;;;;;;;;;;;;4.63;71.29;98839.72;4393031;32;32678;-86
2021/12/05 17:04:12;;;;;;;;;;;;;;;4.82;70.92;98822.47;4368438;32;32986;-86
2021/12/05 17:06:47;;;;;;;;;;;;;;;4.71;71.08;98839.47;4380787;32;32631;-86
2021/12/05 17:09:15;;;;;;;;;;;;;;;4.61;71.32;98834.56;4403271;32;33270;-87
2021/12/05 17:11:42;;;;;;;;;;;;;;;4.91;70.96;98843.97;4392349;32;32966;-87
2021/12/05 17:14:28;;;;;;;;;;;;;;;4.93;70.77;98850.00;4381141;32;34334;-88
2021/12/05 17:16:56;;;;;;;;;;;;;;;4.98;70.56;98848.91;4380383;32;33502;-87
2021/12/05 17:19:26;;;;;;;;;;;;;;;5.10;70.20;98863.34;4387921;32;32891;-87
2021/12/05 17:21:54;;;;;;;;;;;;;;;5.16;70.15;98868.31;4380205;32;32731;-87
2021/12/05 17:24:32;;;;;;;;;;;;;;;5.11;69.88;98860.66;4394790;32;34139;-88
2021/12/05 17:27:03;;;;;;;;;;;;;;;5.50;69.27;98862.69;4379252;32;32793;-89
2021/12/05 17:29:36;;;;;;;;;;;;;;;5.44;69.25;98852.44;4401257;32;34401;-88
2021/12/05 17:32:09;;;;;;;;;;;;;;;5.62;68.60;98861.38;4375141;32;32611;-89
2021/12/05 17:34:38;;;;;;;;;;;;;;;5.68;68.33;98861.12;4388980;32;34604;-89
2021/12/05 17:37:32;;;;;;;;;;;;;;;5.75;68.11;98854.75;4379095;32;33086;-89
2021/12/05 17:40:20;;;;;;;;;;;;;;;5.75;68.12;98851.28;4394460;32;32774;-89
2021/12/05 17:42:47;;;;;;;;;;;;;;;5.86;67.71;98849.09;4380775;32;31829;-90
2021/12/05 17:45:15;;;;;;;;;;;;;;;5.88;67.56;98855.94;4380654;32;33205;-90
2021/12/05 17:47:45;;;;;;;;;;;;;;;5.95;67.24;98854.00;4381196;32;32815;-90
2021/12/05 17:50:14;;;;;;;;;;;;;;;5.88;67.48;98863.81;4383278;32;33461;-90
2021/12/05 17:52:43;;;;;;;;;;;;;;;6.16;66.66;98868.00;4380466;32;34531;-89
2021/12/05 17:55:32;;;;;;;;;;;;;;;6.01;66.75;98866.84;4392786;32;33088;-89
2021/12/05 17:58:09;;;;;;;;;;;;;;;5.88;67.09;98866.44;4396922;32;32905;-89
2021/12/05 18:00:56;;;;;;;;;;;;;;;6.04;66.20;98863.25;4382856;32;33645;-90
2021/12/05 18:03:24;;;;;;;;;;;;;;;5.63;67.58;98866.53;4373329;32;32386;-90
2021/12/05 18:05:52;;;;;;;;;;;;;;;5.77;67.08;98855.53;4392634;32;33317;-89
2021/12/05 18:08:20;;;;;;;;;;;;;;;5.83;66.99;98865.75;4381287;32;32965;-89
2021/12/05 18:10:51;;;;;;;;;;;;;;;5.79;67.06;98856.34;4394578;32;33039;-89
2021/12/05 18:13:22;;;;;;;;;;;;;;;5.95;66.77;98855.75;4382870;32;33074;-90
2021/12/05 18:15:57;;;;;;;;;;;;;;;5.94;66.58;98854.06;4395308;32;32410;-89
2021/12/05 18:18:26;;;;;;;;;;;;;;;5.87;66.88;98856.88;4395091;32;32843;-89
2021/12/05 18:20:56;;;;;;;;;;;;;;;6.07;66.32;98844.78;4395701;32;33812;-89
2021/12/05 18:23:24;;;;;;;;;;;;;;;6.22;65.67;98840.66;4380579;32;33632;-89
2021/12/05 18:25:52;;;;;;;;;;;;;;;6.31;65.04;98837.66;4380184;32;32885;-89
2021/12/05 18:28:20;;;;;;;;;;;;;;;6.27;65.07;98833.50;4374712;32;32706;-89
2021/12/05 18:30:47;;;;;;;;;;;;;;;6.22;64.92;98830.19;4377419;32;35567;-89
2021/12/05 18:33:15;;;;;;;;;;;;;;;5.99;65.86;98834.63;4382571;32;32310;-89
2021/12/05 18:35:43;;;;;;;;;;;;;;;5.94;66.50;98836.56;4394687;32;34007;-89
2021/12/05 18:38:12;;;;;;;;;;;;;;;5.90;66.70;98840.19;4383142;32;32995;-89
2021/12/05 18:40:40;;;;;;;;;;;;;;;5.52;67.81;98849.56;4385426;32;34011;-90
2021/12/05 18:43:09;;;;;;;;;;;;;;;5.64;67.65;98843.81;4405185;32;33605;-89
2021/12/05 18:45:40;;;;;;;;;;;;;;;5.83;67.31;98834.31;4382646;32;33388;-91
2021/12/05 18:48:07;;;;;;;;;;;;;;;5.90;66.45;98825.31;4383011;32;32932;-90
2021/12/05 18:50:35;;;;;;;;;;;;;;;5.81;66.37;98807.34;4393184;32;33043;-90
2021/12/05 18:53:17;;;;;;;;;;;;;;;5.67;67.17;98809.66;4373146;32;31726;-91
2021/12/05 18:55:46;;;;;;;;;;;;;;;5.47;68.03;98801.75;4394564;32;34217;-92
2021/12/05 18:58:44;;;;;;;;;;;;;;;5.55;67.53;98804.91;4400052;32;35024;-92
2021/12/05 19:07:27;;;;;;;;;;;;;;;5.63;67.71;98792.38;4387199;32;32849;-91
2021/12/05 19:13:12;;;;;;;;;;;;;;;5.68;67.59;98779.94;4415168;32;32756;-90
2021/12/05 19:20:04;;;;;;;;;;;;;;;5.79;67.39;98777.75;4449135;32;35315;-91
2021/12/05 19:22:34;;;;;;;;;;;;;;;5.52;68.12;98781.47;4419052;32;33110;-92
2021/12/05 19:25:18;;;;;;;;;;;;;;;5.42;68.55;98785.38;4422246;32;33803;-91
2021/12/05 19:28:22;;;;;;;;;;;;;;;5.56;68.18;98788.31;4391763;32;32383;-91
2021/12/05 19:31:03;;;;;;;;;;;;;;;5.94;67.03;98785.94;4394329;32;33802;-88